Time;durP1;ratioP1;P1;durP2;ratioP2;P2;SDS_P1;SDS_P2;PMS_P1;PMS_P2;Temp;Humidity;BMP_temperature;BMP_pressure;BME280_temperature;BME280_humidity;BME280_pressure;Samples;Min_cycle;Max_cycle;Signal;HPM_P1;HPM_P2
2022/08/11 00:02:29;;;;;;;3.30;3.10;;;;;;;18.68;67.86;97586.28;4965344;28;20646;-65
2022/08/11 00:04:57;;;;;;;2.87;2.67;;;;;;;18.61;68.60;97579.16;4947401;28;20296;-63
2022/08/11 00:07:26;;;;;;;5.40;2.80;;;;;;;18.54;70.65;97591.81;4969493;28;20315;-64
2022/08/11 00:09:55;;;;;;;10.90;5.80;;;;;;;18.56;68.96;97595.13;4948252;28;20313;-62
2022/08/11 00:12:24;;;;;;;2.83;2.63;;;;;;;18.44;69.18;97587.00;4951348;28;20299;-64
2022/08/11 00:15:08;;;;;;;3.33;3.00;;;;;;;18.36;69.66;97595.31;4891156;28;20233;-62
2022/08/11 00:17:36;;;;;;;3.57;2.87;;;;;;;18.24;72.89;97587.22;4969542;28;20371;-65
2022/08/11 00:20:07;;;;;;;3.37;3.10;;;;;;;18.12;75.18;97587.16;4935695;28;20415;-65
2022/08/11 00:22:45;;;;;;;3.40;3.00;;;;;;;18.20;73.23;97594.88;4963823;28;20408;-64
2022/08/11 00:25:16;;;;;;;3.20;3.00;;;;;;;18.08;75.61;97588.63;4953060;28;20694;-62
2022/08/11 00:27:44;;;;;;;2.90;2.70;;;;;;;18.03;76.16;97593.84;4963019;28;20205;-64
2022/08/11 00:30:15;;;;;;;3.80;3.13;;;;;;;18.02;77.84;97592.22;4912220;28;20248;-62
2022/08/11 00:32:44;;;;;;;3.90;2.90;;;;;;;18.00;77.87;97597.75;4968167;28;20206;-64
2022/08/11 00:35:16;;;;;;;4.80;3.60;;;;;;;17.94;76.99;97604.00;4965811;28;20213;-62
2022/08/11 00:38:05;;;;;;;3.00;2.90;;;;;;;17.94;79.46;97604.81;4959613;28;20328;-63
2022/08/11 00:40:37;;;;;;;3.20;3.00;;;;;;;17.78;79.18;97600.03;4940079;28;20761;-64
2022/08/11 00:43:15;;;;;;;3.57;3.27;;;;;;;17.85;79.77;97599.97;4963371;28;20308;-62
2022/08/11 00:46:05;;;;;;;3.00;2.80;;;;;;;17.83;81.44;97602.84;4916113;28;20233;-64
2022/08/11 00:48:37;;;;;;;3.27;3.07;;;;;;;17.93;80.98;97605.03;4966701;28;20527;-63
2022/08/11 00:51:11;;;;;;;3.17;2.90;;;;;;;17.83;81.18;97594.81;4967303;28;20308;-61
2022/08/11 00:53:46;;;;;;;3.03;2.90;;;;;;;17.70;81.88;97608.34;4967358;28;20461;-64
2022/08/11 00:56:57;;;;;;;6.07;3.60;;;;;;;17.71;83.22;97599.28;4952737;28;20225;-62
2022/08/11 00:59:47;;;;;;;3.37;3.17;;;;;;;17.63;83.92;97603.03;4959174;28;20301;-61
2022/08/11 01:02:19;;;;;;;3.27;3.07;;;;;;;17.61;84.53;97597.88;4858293;28;21020;-65
2022/08/11 01:05:14;;;;;;;5.00;3.43;;;;;;;17.62;85.88;97593.34;4943555;28;20316;-62
2022/08/11 01:08:17;;;;;;;3.40;3.07;;;;;;;17.67;86.08;97595.41;4966655;28;20810;-62
2022/08/11 01:11:21;;;;;;;3.60;3.30;;;;;;;17.71;83.66;97597.41;4945958;28;20722;-64
2022/08/11 01:14:25;;;;;;;4.50;3.07;;;;;;;17.82;84.41;97600.41;4961167;28;20570;-64
2022/08/11 01:17:22;;;;;;;2.87;2.67;;;;;;;17.74;83.35;97599.63;4914382;28;20931;-62
2022/08/11 01:20:03;;;;;;;8.57;4.63;;;;;;;17.76;85.33;97597.56;4954933;28;20300;-62
2022/08/11 01:23:42;;;;;;;3.10;2.90;;;;;;;17.64;86.20;97599.31;4967562;28;20206;-61
2022/08/11 01:26:39;;;;;;;6.97;3.77;;;;;;;17.64;85.54;97594.78;4943232;28;20633;-62
2022/08/11 01:29:45;;;;;;;3.57;3.37;;;;;;;17.67;86.41;97598.06;4966502;28;20454;-65
2022/08/11 01:32:38;;;;;;;3.27;3.17;;;;;;;17.64;87.54;97597.47;4964257;28;20813;-64
2022/08/11 01:35:34;;;;;;;3.17;2.97;;;;;;;17.64;88.33;97602.00;4924159;28;20252;-65
2022/08/11 01:38:35;;;;;;;3.27;3.07;;;;;;;17.56;87.76;97588.88;4961680;28;20781;-63
2022/08/11 01:44:36;;;;;;;3.67;3.40;;;;;;;17.50;88.86;97594.09;4940886;28;20229;-62
2022/08/11 01:44:48;;;;;;;3.37;3.07;;;;;;;17.49;88.04;97592.44;4964800;28;20647;-63
2022/08/11 01:50:51;;;;;;;4.00;3.33;;;;;;;17.46;89.05;97592.88;4888968;28;20240;-63
2022/08/11 01:53:28;;;;;;;3.33;2.90;;;;;;;17.32;91.20;97578.78;4955126;28;20661;-64
2022/08/11 01:56:07;;;;;;;4.13;3.53;;;;;;;17.28;91.24;97595.47;4949364;28;20311;-61
2022/08/11 01:58:41;;;;;;;4.73;3.23;;;;;;;17.26;92.11;97593.03;4968381;28;20309;-64
2022/08/11 02:01:28;;;;;;;3.63;3.33;;;;;;;17.28;92.39;97590.13;4966999;28;20215;-62
2022/08/11 02:04:06;;;;;;;3.03;2.83;;;;;;;17.19;92.90;97592.22;4920871;28;20256;-61
2022/08/11 02:06:54;;;;;;;3.17;2.97;;;;;;;17.16;94.58;97581.97;4966620;28;20449;-63
2022/08/11 02:09:34;;;;;;;2.63;2.53;;;;;;;17.16;94.13;97579.28;4965859;28;20216;-64
2022/08/11 02:12:11;;;;;;;3.57;3.27;;;;;;;17.12;93.23;97580.75;4937759;28;20735;-63
2022/08/11 02:14:44;;;;;;;2.97;2.87;;;;;;;17.15;94.47;97580.31;4963943;28;20241;-64
2022/08/11 02:17:50;;;;;;;3.70;3.40;;;;;;;17.10;94.90;97581.00;4966705;28;20228;-64
2022/08/11 02:23:40;;;;;;;3.70;3.40;;;;;;;16.92;94.93;97574.47;4963915;28;20230;-64
2022/08/11 02:26:35;;;;;;;3.40;3.20;;;;;;;16.87;96.38;97589.53;4962091;28;20750;-61
2022/08/11 02:29:11;;;;;;;3.40;3.10;;;;;;;16.86;97.53;97579.88;4944779;28;20418;-63
2022/08/11 02:35:02;;;;;;;4.93;3.97;;;;;;;16.63;100.00;97567.84;4881712;28;20219;-60
2022/08/11 02:37:42;;;;;;;4.77;3.23;;;;;;;16.54;100.00;97577.97;4890707;28;20656;-65
2022/08/11 02:40:20;;;;;;;3.00;2.80;;;;;;;16.49;100.00;97573.25;4921543;28;20522;-60
2022/08/11 02:43:09;;;;;;;3.40;3.20;;;;;;;16.42;100.00;97577.00;4906360;28;20936;-62
2022/08/11 02:45:53;;;;;;;3.20;3.00;;;;;;;16.36;100.00;97570.63;4925593;28;20227;-65
2022/08/11 02:51:29;;;;;;;4.13;3.83;;;;;;;16.25;100.00;97576.63;4849038;28;20257;-63
2022/08/11 02:54:06;;;;;;;4.47;3.33;;;;;;;16.23;100.00;97571.50;4930966;28;20592;-65
2022/08/11 02:56:43;;;;;;;4.77;4.17;;;;;;;16.04;100.00;97573.19;4924102;28;20269;-65
2022/08/11 03:02:19;;;;;;;3.53;3.33;;;;;;;15.47;100.00;97568.31;4928210;28;20250;-62
2022/08/11 03:05:00;;;;;;;4.60;3.93;;;;;;;15.26;100.00;97569.34;4926089;28;20294;-65
2022/08/11 03:07:33;;;;;;;4.07;3.87;;;;;;;15.07;100.00;97573.63;4869938;28;20565;-64
2022/08/11 03:10:08;;;;;;;3.90;3.60;;;;;;;14.88;100.00;97573.38;4867671;28;20356;-65
2022/08/11 03:18:35;;;;;;;4.83;4.47;;;;;;;14.49;100.00;97591.72;4920414;28;20222;-64
2022/08/11 03:21:07;;;;;;;4.17;3.70;;;;;;;14.47;100.00;97578.56;4924964;28;20439;-65
2022/08/11 03:23:39;;;;;;;3.90;3.60;;;;;;;14.46;100.00;97581.47;4925302;28;20239;-63
2022/08/11 03:26:18;;;;;;;3.90;3.70;;;;;;;14.45;100.00;97580.63;4847479;28;20874;-63
2022/08/11 03:28:55;;;;;;;5.63;3.87;;;;;;;14.30;100.00;97582.63;4924316;28;20217;-65
2022/08/11 03:31:26;;;;;;;4.00;3.80;;;;;;;14.32;100.00;97583.25;4935585;28;21038;-63
2022/08/11 03:34:01;;;;;;;4.03;3.80;;;;;;;14.19;100.00;97586.66;4968404;28;20525;-65
2022/08/11 03:36:59;;;;;;;3.83;3.60;;;;;;;14.23;100.00;97584.44;4961047;28;20331;-64
2022/08/11 03:39:56;;;;;;;4.60;4.20;;;;;;;14.09;100.00;97588.88;4966363;28;20477;-63
2022/08/11 03:42:29;;;;;;;5.60;4.67;;;;;;;14.10;100.00;97579.84;4924861;28;20609;-64
2022/08/11 03:45:05;;;;;;;4.20;4.00;;;;;;;14.03;100.00;97593.13;4963783;28;20297;-64
2022/08/11 03:48:12;;;;;;;5.33;3.73;;;;;;;13.99;100.00;97587.34;4939750;28;21185;-65
2022/08/11 03:51:06;;;;;;;4.43;4.13;;;;;;;13.88;100.00;97591.41;4962610;28;20726;-65
2022/08/11 03:54:08;;;;;;;4.97;4.27;;;;;;;13.86;100.00;97589.94;4964659;28;20353;-64
2022/08/11 03:57:09;;;;;;;4.67;4.20;;;;;;;13.81;100.00;97593.19;4915821;28;20331;-65
2022/08/11 04:00:11;;;;;;;5.00;4.50;;;;;;;13.81;100.00;97584.38;4961859;28;20567;-64
2022/08/11 04:03:08;;;;;;;5.20;4.80;;;;;;;13.73;100.00;97586.19;4943394;28;20240;-65
2022/08/11 04:06:02;;;;;;;4.60;4.30;;;;;;;13.79;100.00;97586.41;4965823;28;20280;-65
2022/08/11 04:08:55;;;;;;;5.17;4.87;;;;;;;13.72;100.00;97591.69;4964064;28;20439;-63
2022/08/11 04:11:51;;;;;;;4.97;4.60;;;;;;;13.63;100.00;97592.88;4913334;28;23083;-65
2022/08/11 04:17:56;;;;;;;5.13;4.83;;;;;;;13.60;100.00;97597.56;4962519;28;20572;-64
2022/08/11 04:21:12;;;;;;;5.07;4.70;;;;;;;13.63;100.00;97590.19;4947547;28;20210;-63
2022/08/11 04:24:02;;;;;;;5.33;4.90;;;;;;;13.69;100.00;97595.59;4949863;28;20216;-65
2022/08/11 04:27:27;;;;;;;5.03;4.53;;;;;;;13.75;100.00;97592.13;4902957;28;20718;-66
2022/08/11 04:30:08;;;;;;;4.93;4.53;;;;;;;13.60;100.00;97594.06;4959081;28;20245;-64
2022/08/11 04:33:33;;;;;;;5.30;4.60;;;;;;;13.77;100.00;97591.94;4971207;28;20259;-65
2022/08/11 04:36:12;;;;;;;4.17;3.77;;;;;;;13.83;100.00;97593.84;4966017;28;20276;-65
2022/08/11 04:38:58;;;;;;;5.03;4.63;;;;;;;13.90;100.00;97599.19;4960764;28;20288;-65
2022/08/11 04:45:39;;;;;;;4.37;3.97;;;;;;;13.89;100.00;97600.22;4969007;28;20301;-65
2022/08/11 05:03:36;;;;;;;4.67;4.37;;;;;;;14.42;100.00;97602.34;4965289;28;20287;-63
2022/08/11 05:06:46;;;;;;;4.33;4.03;;;;;;;14.50;100.00;97614.69;4891931;29;20238;-63
2022/08/11 05:09:28;;;;;;;4.40;4.10;;;;;;;14.67;100.00;97614.34;4890458;29;20761;-63
2022/08/11 05:12:08;;;;;;;3.87;3.67;;;;;;;14.79;100.00;97618.13;4908533;29;20347;-62
2022/08/11 05:35:03;;;;;;;4.33;4.03;;;;;;;15.68;100.00;97607.34;4858188;29;20543;-61
2022/08/11 05:37:37;;;;;;;4.43;4.23;;;;;;;15.74;100.00;97608.38;4905203;29;20228;-64
2022/08/11 05:57:09;;;;;;;6.97;5.10;;;;;;;16.62;100.00;97620.50;4947450;28;20261;-64
2022/08/11 06:00:02;;;;;;;5.70;4.10;;;;;;;16.77;100.00;97622.91;4966706;28;20228;-62
2022/08/11 06:02:30;;;;;;;4.10;3.87;;;;;;;16.84;100.00;97617.53;4953070;28;20249;-62
2022/08/11 06:05:00;;;;;;;4.80;4.40;;;;;;;16.97;100.00;97618.50;4921401;28;20483;-64
2022/08/11 06:07:30;;;;;;;4.47;4.13;;;;;;;17.21;100.00;97614.25;4966148;28;20225;-63
2022/08/11 06:10:26;;;;;;;4.43;4.03;;;;;;;17.34;100.00;97614.19;4950648;28;20217;-65
2022/08/11 06:12:55;;;;;;;5.60;3.97;;;;;;;17.46;100.00;97616.16;4964245;28;20710;-64
2022/08/11 06:15:25;;;;;;;10.67;4.33;;;;;;;17.56;100.00;97619.16;4964202;28;20786;-63
2022/08/11 06:17:55;;;;;;;4.43;4.13;;;;;;;17.71;100.00;97620.72;4948708;28;20249;-64
2022/08/11 06:20:24;;;;;;;4.10;3.80;;;;;;;17.72;100.00;97622.34;4923245;28;20620;-63
2022/08/11 06:22:58;;;;;;;4.10;3.80;;;;;;;17.70;100.00;97624.44;4964258;28;20201;-61
2022/08/11 06:25:30;;;;;;;4.20;4.00;;;;;;;17.92;100.00;97620.28;4951491;28;20206;-65
2022/08/11 06:27:59;;;;;;;4.53;4.13;;;;;;;18.12;100.00;97621.16;4968676;28;20276;-61
2022/08/11 06:30:39;;;;;;;5.13;3.97;;;;;;;18.27;100.00;97621.66;4965638;28;20253;-64
2022/08/11 06:33:10;;;;;;;4.00;3.70;;;;;;;18.50;100.00;97623.66;4925705;28;21099;-63
2022/08/11 06:35:47;;;;;;;4.43;4.13;;;;;;;18.59;99.39;97618.81;4920707;28;20316;-64
2022/08/11 06:38:23;;;;;;;4.17;3.87;;;;;;;18.73;97.59;97621.31;4966499;28;20220;-62
2022/08/11 06:43:49;;;;;;;4.53;3.77;;;;;;;18.87;97.70;97624.66;4967568;28;20270;-65
2022/08/11 06:46:28;;;;;;;4.10;3.70;;;;;;;19.07;92.01;97621.72;4963536;28;20309;-65
2022/08/11 06:48:56;;;;;;;4.33;3.93;;;;;;;19.30;85.08;97626.34;4949167;28;20246;-63
2022/08/11 06:51:23;;;;;;;4.00;3.50;;;;;;;19.49;79.34;97628.94;4918131;28;20313;-66
2022/08/11 06:53:56;;;;;;;4.07;3.77;;;;;;;19.51;79.83;97622.31;4960472;28;20791;-63
2022/08/11 07:02:32;;;;;;;3.67;3.47;;;;;;;20.02;75.94;97615.72;4969314;28;20719;-64
2022/08/11 07:05:03;;;;;;;3.70;3.50;;;;;;;20.06;72.47;97606.91;4946951;28;20428;-64
2022/08/11 07:16:50;;;;;;;3.90;3.60;;;;;;;20.82;67.85;97613.34;4966094;28;20236;-61
2022/08/11 07:30:38;;;;;;;3.37;3.17;;;;;;;21.21;63.50;97602.78;4960709;28;20332;-65
2022/08/11 07:33:07;;;;;;;3.60;3.23;;;;;;;21.00;62.40;97598.88;4966383;28;20228;-65
2022/08/11 07:35:42;;;;;;;3.53;3.20;;;;;;;21.02;63.33;97595.94;4946340;28;20491;-66
2022/08/11 07:38:17;;;;;;;4.00;3.70;;;;;;;21.31;64.37;97598.59;4966033;28;20197;-66
2022/08/11 07:40:52;;;;;;;3.87;3.57;;;;;;;21.27;59.38;97603.66;4905166;28;20221;-63
2022/08/11 07:43:21;;;;;;;3.90;3.70;;;;;;;21.37;58.72;97595.75;4949752;28;20296;-65
2022/08/11 07:54:07;;;;;;;3.70;3.50;;;;;;;21.76;56.37;97599.59;4960738;28;20387;-65
2022/08/11 07:56:45;;;;;;;3.87;3.57;;;;;;;21.61;56.67;97600.19;4917990;28;20233;-63
2022/08/11 08:19:07;;;;;;;3.43;3.20;;;;;;;22.00;50.78;97592.16;4951970;28;20808;-60
2022/08/11 08:21:35;;;;;;;5.50;3.20;;;;;;;22.01;50.59;97584.88;4970328;28;20297;-64
2022/08/11 08:24:07;;;;;;;3.00;2.80;;;;;;;22.16;51.30;97582.41;4960809;28;20321;-63
2022/08/11 08:32:10;;;;;;;2.63;2.43;;;;;;;22.42;45.71;97593.50;4965111;28;20325;-65
2022/08/11 08:34:39;;;;;;;3.30;3.10;;;;;;;22.47;45.16;97587.41;4952113;28;20321;-65
2022/08/11 08:37:07;;;;;;;3.30;2.80;;;;;;;22.31;44.87;97600.66;4962396;28;20630;-64
2022/08/11 08:39:58;;;;;;;3.77;2.83;;;;;;;22.24;44.91;97590.06;4966909;28;20557;-61
2022/08/11 08:42:28;;;;;;;4.00;2.70;;;;;;;22.25;44.71;97586.28;4922882;28;20726;-64
2022/08/11 08:44:59;;;;;;;6.13;3.00;;;;;;;22.49;44.41;97579.84;4964825;28;20230;-61
2022/08/11 08:47:28;;;;;;;3.10;2.80;;;;;;;22.78;44.21;97580.44;4966790;28;20701;-64
2022/08/11 08:50:12;;;;;;;3.00;2.80;;;;;;;22.71;44.74;97590.66;4950570;28;22476;-63
2022/08/11 08:52:47;;;;;;;3.23;3.03;;;;;;;22.74;45.25;97573.13;4968210;28;20217;-64
2022/08/11 08:55:19;;;;;;;3.17;2.97;;;;;;;22.81;44.40;97574.53;4965747;28;20312;-65
2022/08/11 08:57:50;;;;;;;3.43;3.20;;;;;;;22.66;44.42;97577.09;4923421;28;20241;-62
2022/08/11 09:00:20;;;;;;;3.33;2.80;;;;;;;22.68;43.66;97581.16;4967293;28;20318;-62
2022/08/11 09:02:51;;;;;;;3.37;2.80;;;;;;;22.64;44.98;97568.44;4970284;28;20212;-62
2022/08/11 09:05:20;;;;;;;2.90;2.70;;;;;;;22.80;43.88;97564.81;4952573;28;20705;-64
2022/08/11 09:07:52;;;;;;;2.93;2.73;;;;;;;23.01;43.70;97565.03;4966253;28;20294;-64
2022/08/11 09:10:21;;;;;;;5.70;3.10;;;;;;;23.09;43.62;97569.97;4966547;28;20424;-65
2022/08/11 09:12:54;;;;;;;3.50;3.30;;;;;;;23.15;43.00;97562.72;4948750;28;20292;-61
2022/08/11 09:15:24;;;;;;;4.90;2.67;;;;;;;23.22;43.69;97559.78;4955564;28;20230;-65
2022/08/11 09:18:02;;;;;;;3.63;2.70;;;;;;;23.20;42.12;97556.53;4968186;28;20229;-62
2022/08/11 09:20:33;;;;;;;2.90;2.70;;;;;;;23.18;42.39;97562.22;4966768;28;20206;-64
2022/08/11 09:28:58;;;;;;;2.67;2.47;;;;;;;23.75;40.48;97556.44;4920520;28;20619;-63
2022/08/11 09:31:27;;;;;;;3.07;2.77;;;;;;;23.76;40.68;97549.97;4967716;28;20359;-65
2022/08/11 09:33:55;;;;;;;2.90;2.63;;;;;;;23.76;40.69;97569.69;4903691;28;20246;-64
2022/08/11 09:42:00;;;;;;;2.80;2.43;;;;;;;23.94;40.66;97552.22;4969397;28;20206;-64
2022/08/11 09:44:51;;;;;;;3.20;3.00;;;;;;;24.16;38.98;97553.16;4959380;28;20202;-64
2022/08/11 09:47:23;;;;;;;3.07;2.77;;;;;;;23.63;38.70;97549.31;4923043;28;20635;-61
2022/08/11 09:49:58;;;;;;;2.87;2.67;;;;;;;23.66;38.73;97556.13;4967490;28;20210;-65
2022/08/11 09:52:29;;;;;;;2.77;2.67;;;;;;;23.58;39.71;97554.69;4961573;28;20255;-62
2022/08/11 09:54:58;;;;;;;2.87;2.70;;;;;;;23.70;39.87;97552.63;4965610;28;20249;-63
2022/08/11 10:00:14;;;;;;;2.63;2.50;;;;;;;23.72;40.18;97546.94;4965305;28;20209;-60
2022/08/11 10:02:44;;;;;;;2.77;2.57;;;;;;;23.83;38.36;97543.22;4957870;28;20213;-63
2022/08/11 10:08:01;;;;;;;2.70;2.60;;;;;;;23.95;38.85;97534.91;4970389;28;20245;-65
2022/08/11 10:10:29;;;;;;;4.70;2.63;;;;;;;24.06;38.77;97541.22;4956507;28;20233;-65
2022/08/11 10:13:04;;;;;;;2.73;2.63;;;;;;;24.10;37.74;97536.91;4956640;28;20306;-65
2022/08/11 10:15:53;;;;;;;3.47;3.17;;;;;;;24.28;37.88;97532.13;4969072;28;20634;-64
2022/08/11 10:18:48;;;;;;;4.53;2.60;;;;;;;24.56;37.28;97522.75;4954342;28;20573;-65
2022/08/11 10:21:27;;;;;;;2.73;2.10;;;;;;;24.33;36.71;97525.91;4916368;28;20645;-62
2022/08/11 10:26:52;;;;;;;2.43;2.30;;;;;;;24.46;36.94;97538.13;4965087;28;20319;-66
2022/08/11 10:35:26;;;;;;;2.50;2.30;;;;;;;24.42;37.88;97521.59;4922038;28;20236;-62
2022/08/11 10:37:55;;;;;;;3.63;2.43;;;;;;;24.50;36.28;97515.69;4964880;28;20213;-65
2022/08/11 10:43:01;;;;;;;3.03;2.40;;;;;;;24.66;35.05;97513.81;4961503;28;20281;-66
2022/08/11 10:43:36;;;;;;;4.50;2.27;;;;;;;24.64;35.99;97507.03;4950285;28;20300;-66
2022/08/11 10:49:12;;;;;;;2.70;1.83;;;;;;;24.49;36.63;97511.34;4946090;28;20667;-63
2022/08/11 10:59:58;;;;;;;2.97;2.57;;;;;;;25.14;33.91;97497.34;4958076;28;20384;-67
2022/08/11 11:02:28;;;;;;;2.53;2.40;;;;;;;24.89;34.26;97502.78;4962105;28;20554;-61
2022/08/11 11:05:03;;;;;;;2.13;2.03;;;;;;;24.77;34.80;97501.13;4952951;28;20603;-65
2022/08/11 11:07:38;;;;;;;4.93;2.03;;;;;;;24.93;34.93;97501.16;4913101;28;22340;-65
2022/08/11 11:10:11;;;;;;;3.33;2.00;;;;;;;25.15;34.58;97493.56;4964144;28;20587;-62
2022/08/11 11:18:20;;;;;;;6.03;2.40;;;;;;;25.37;32.89;97492.47;4964020;28;20317;-62
2022/08/11 11:20:53;;;;;;;1.87;1.77;;;;;;;25.45;32.77;97488.41;4952679;28;20295;-64
2022/08/11 11:23:25;;;;;;;2.30;2.13;;;;;;;25.63;32.81;97484.31;4914058;28;20296;-62
2022/08/11 11:26:13;;;;;;;2.00;1.90;;;;;;;25.55;33.86;97482.97;4965307;28;20812;-63
2022/08/11 11:28:53;;;;;;;4.63;2.20;;;;;;;25.53;33.06;97487.88;4951291;28;20749;-66
2022/08/11 11:31:31;;;;;;;2.17;2.07;;;;;;;25.43;31.72;97479.72;4949695;28;20487;-65
2022/08/11 11:34:13;;;;;;;2.40;2.20;;;;;;;25.48;32.75;97470.78;4953855;28;20527;-62
2022/08/11 11:36:45;;;;;;;1.77;1.67;;;;;;;25.67;31.74;97471.84;4953111;28;20256;-63
2022/08/11 11:39:20;;;;;;;1.90;1.80;;;;;;;25.49;32.19;97472.41;4966027;28;20205;-62
2022/08/11 11:41:49;;;;;;;1.83;1.73;;;;;;;25.57;31.79;97464.53;4930918;28;20533;-64
2022/08/11 11:44:17;;;;;;;1.97;1.80;;;;;;;25.65;31.69;97467.75;4962044;28;20222;-64
2022/08/11 11:46:46;;;;;;;2.37;2.20;;;;;;;25.63;32.07;97462.63;4962110;28;20937;-65
2022/08/11 11:49:17;;;;;;;3.17;2.10;;;;;;;25.67;32.62;97460.16;4967501;28;20302;-64
2022/08/11 11:51:52;;;;;;;1.97;1.87;;;;;;;25.91;32.25;97452.19;4953801;28;20401;-64
2022/08/11 11:54:25;;;;;;;2.17;2.07;;;;;;;26.01;31.83;97457.59;4955940;28;20750;-63
2022/08/11 11:56:55;;;;;;;2.57;2.00;;;;;;;26.14;31.28;97455.38;4946512;28;20447;-64
2022/08/11 12:02:13;;;;;;;2.00;1.90;;;;;;;26.07;30.39;97457.59;4967062;28;20300;-64
2022/08/11 12:04:44;;;;;;;3.33;1.73;;;;;;;25.94;31.06;97451.63;4944578;28;20473;-64
2022/08/11 12:09:58;;;;;;;1.73;1.63;;;;;;;26.18;29.75;97455.66;4907289;28;20301;-66
2022/08/11 12:15:12;;;;;;;1.50;1.40;;;;;;;26.51;29.95;97451.38;4963897;28;20262;-65
2022/08/11 12:17:40;;;;;;;3.07;2.20;;;;;;;26.75;29.43;97442.53;4962194;28;20542;-65
2022/08/11 12:20:13;;;;;;;1.93;1.77;;;;;;;26.89;29.23;97448.16;4964182;28;20317;-66
2022/08/11 12:28:52;;;;;;;3.13;1.90;;;;;;;27.65;30.79;97436.84;4963891;28;20587;-65
2022/08/11 12:31:20;;;;;;;1.87;1.77;;;;;;;27.81;29.58;97439.38;4962493;28;20283;-65
2022/08/11 12:33:49;;;;;;;2.13;2.03;;;;;;;28.24;29.16;97435.88;4961843;28;20299;-65
2022/08/11 12:36:19;;;;;;;1.83;1.63;;;;;;;28.57;28.29;97434.03;4950323;28;20320;-63
2022/08/11 12:38:48;;;;;;;2.00;1.90;;;;;;;28.08;29.28;97433.34;4962787;28;20257;-65
2022/08/11 12:46:52;;;;;;;1.70;1.57;;;;;;;31.04;25.66;97425.94;4966507;28;20562;-65
2022/08/11 12:52:19;;;;;;;2.80;1.83;;;;;;;33.12;22.98;97420.75;4967337;28;20239;-63
2022/08/11 12:54:56;;;;;;;2.47;1.90;;;;;;;34.44;21.46;97409.91;4953684;28;20256;-66
2022/08/11 13:05:52;;;;;;;2.70;2.23;;;;;;;36.98;19.48;97403.41;4969770;28;20247;-65
2022/08/11 13:08:23;;;;;;;2.33;2.23;;;;;;;33.63;21.74;97391.50;4937871;28;20214;-61
2022/08/11 13:13:41;;;;;;;2.77;2.20;;;;;;;35.24;21.25;97393.50;4947404;28;20820;-64
2022/08/11 13:16:24;;;;;;;3.40;1.80;;;;;;;36.96;20.07;97387.19;4963468;28;20229;-62
2022/08/11 13:18:52;;;;;;;2.07;1.97;;;;;;;37.91;18.93;97385.59;4968348;28;20276;-64
2022/08/11 13:21:21;;;;;;;2.10;1.93;;;;;;;37.22;18.96;97385.91;4968839;28;20209;-63
2022/08/11 13:23:53;;;;;;;2.67;2.30;;;;;;;35.28;20.52;97393.59;4966694;28;20210;-62
2022/08/11 13:26:31;;;;;;;1.90;1.80;;;;;;;34.69;20.55;97379.00;4919489;28;20347;-62
2022/08/11 13:29:21;;;;;;;2.00;1.90;;;;;;;36.75;19.70;97391.00;4968077;28;20618;-65
2022/08/11 13:31:50;;;;;;;2.10;1.90;;;;;;;40.20;18.79;97375.81;4954740;28;20446;-63
2022/08/11 13:34:19;;;;;;;3.80;1.97;;;;;;;41.18;16.81;97386.09;4957225;28;20659;-61
2022/08/11 13:36:50;;;;;;;3.80;2.43;;;;;;;37.96;18.54;97379.00;4966189;28;20578;-64
2022/08/11 13:39:21;;;;;;;2.83;2.10;;;;;;;35.83;20.22;97379.63;4969619;28;20207;-63
2022/08/11 13:41:52;;;;;;;2.70;1.97;;;;;;;33.47;22.43;97383.00;4946719;28;20219;-64
2022/08/11 13:44:21;;;;;;;1.90;1.70;;;;;;;34.78;21.18;97374.19;4915033;28;20317;-64
2022/08/11 13:46:54;;;;;;;5.27;1.93;;;;;;;35.22;20.35;97381.97;4911890;28;24788;-63
2022/08/11 13:49:22;;;;;;;6.53;2.60;;;;;;;33.93;21.10;97368.72;4968432;28;20722;-61
2022/08/11 13:51:50;;;;;;;2.80;1.90;;;;;;;34.10;21.89;97380.75;4969125;28;20225;-64
2022/08/11 13:54:21;;;;;;;13.67;4.13;;;;;;;35.84;20.59;97370.22;4967316;28;20220;-61
2022/08/11 13:56:53;;;;;;;3.90;2.10;;;;;;;38.44;18.33;97366.97;4965876;28;20546;-63
2022/08/11 13:59:22;;;;;;;2.13;1.70;;;;;;;37.56;18.62;97372.56;4950186;28;20269;-60
2022/08/11 14:02:02;;;;;;;3.63;1.83;;;;;;;39.36;18.25;97360.75;4916744;28;20219;-64
2022/08/11 14:04:54;;;;;;;2.67;2.00;;;;;;;39.78;17.24;97363.78;4951458;28;20533;-61
2022/08/11 14:07:24;;;;;;;3.50;1.80;;;;;;;40.12;16.49;97357.50;4967329;28;20575;-61
2022/08/11 14:09:57;;;;;;;1.97;1.87;;;;;;;37.02;18.82;97357.41;4966691;28;20243;-64
2022/08/11 14:15:18;;;;;;;1.73;1.73;;;;;;;39.49;16.88;97355.81;4965914;28;20509;-64
2022/08/11 14:17:50;;;;;;;2.13;2.00;;;;;;;36.83;18.97;97356.09;4916321;28;20220;-65
2022/08/11 14:20:19;;;;;;;2.33;2.13;;;;;;;36.89;18.56;97362.97;4945982;28;20219;-64
2022/08/11 14:23:06;;;;;;;8.73;2.60;;;;;;;36.62;18.53;97354.38;4959317;28;20214;-61
2022/08/11 14:26:22;;;;;;;3.97;2.30;;;;;;;37.55;18.16;97359.09;4961497;28;20217;-64
2022/08/11 14:28:28;;;;;;;2.17;1.60;;;;;;;41.08;16.22;97347.84;4942938;28;20206;-64
2022/08/11 14:31:04;;;;;;;4.40;1.80;;;;;;;41.60;15.60;97344.34;4940582;28;20472;-64
2022/08/11 14:33:32;;;;;;;2.27;2.07;;;;;;;42.37;14.98;97344.34;4922178;28;20304;-63
2022/08/11 14:36:21;;;;;;;3.40;1.87;;;;;;;43.85;14.51;97348.44;4949921;28;20253;-63
2022/08/11 14:38:50;;;;;;;5.20;1.87;;;;;;;40.32;15.89;97347.84;4927878;28;20233;-61
2022/08/11 14:47:19;;;;;;;2.50;2.03;;;;;;;39.45;16.65;97338.34;4947756;28;20235;-65
2022/08/11 14:49:54;;;;;;;4.80;4.10;;;;;;;42.71;15.81;97339.69;4898111;28;20231;-61
2022/08/11 14:52:39;;;;;;;2.70;2.50;;;;;;;42.55;14.20;97338.03;4950516;28;20347;-60
2022/08/11 14:57:56;;;;;;;2.50;1.80;;;;;;;41.94;15.63;97333.00;4964009;28;20476;-62
2022/08/11 15:00:25;;;;;;;3.73;1.97;;;;;;;41.48;14.51;97339.84;4962946;28;20267;-63
2022/08/11 15:03:11;;;;;;;3.63;1.93;;;;;;;41.23;14.46;97340.47;4963492;28;20771;-63
2022/08/11 15:05:46;;;;;;;2.00;1.90;;;;;;;41.56;14.64;97335.94;4901748;28;20263;-61
2022/08/11 15:14:06;;;;;;;1.90;1.80;;;;;;;38.66;17.34;97332.22;4967359;28;20445;-66
2022/08/11 15:19:20;;;;;;;4.43;2.20;;;;;;;38.35;16.61;97337.53;4920124;28;20224;-64
2022/08/11 15:24:35;;;;;;;3.63;1.90;;;;;;;40.34;15.92;97316.97;4968103;28;20752;-61
2022/08/11 15:38:35;;;;;;;3.60;2.30;;;;;;;29.73;26.30;97315.22;4963893;28;20491;-65
2022/08/11 15:46:48;;;;;;;7.93;2.60;;;;;;;27.12;29.69;97316.09;4925474;28;20226;-64
2022/08/11 15:49:23;;;;;;;2.33;2.13;;;;;;;26.66;30.36;97317.34;4928559;28;20256;-65
2022/08/11 15:52:14;;;;;;;4.90;2.40;;;;;;;26.50;30.71;97308.50;4891973;28;20228;-64
2022/08/11 15:54:43;;;;;;;3.03;2.10;;;;;;;26.52;30.50;97309.03;4854625;28;20220;-65
2022/08/11 16:04:09;;;;;;;4.77;2.40;;;;;;;26.75;31.04;97312.09;4906426;28;20326;-62
2022/08/11 16:06:13;;;;;;;2.80;2.60;;;;;;;25.99;31.07;97313.22;4885279;29;20240;-64
2022/08/11 16:08:44;;;;;;;3.50;2.20;;;;;;;26.08;31.32;97309.91;4842353;29;20669;-66
2022/08/11 16:11:13;;;;;;;3.53;2.93;;;;;;;25.94;31.70;97309.72;4881964;29;20647;-64
2022/08/11 16:16:30;;;;;;;2.50;2.10;;;;;;;25.81;31.28;97301.13;4872207;29;20494;-64
2022/08/11 16:19:00;;;;;;;5.47;2.43;;;;;;;25.62;31.32;97294.69;4894614;28;20629;-62
2022/08/11 16:21:36;;;;;;;2.57;2.20;;;;;;;25.44;31.64;97300.44;4919995;28;20498;-65
2022/08/11 16:24:08;;;;;;;2.70;2.37;;;;;;;25.49;30.87;97307.78;4902861;28;20356;-62
2022/08/11 16:26:57;;;;;;;2.23;2.13;;;;;;;25.42;31.12;97294.47;4924449;28;20330;-66
2022/08/11 16:29:42;;;;;;;1.70;1.70;;;;;;;25.36;31.45;97298.31;4925405;28;20553;-65
2022/08/11 16:32:17;;;;;;;2.03;1.93;;;;;;;25.32;31.87;97291.81;4915759;28;20274;-64
2022/08/11 16:40:23;;;;;;;3.70;3.07;;;;;;;25.22;31.66;97286.44;4904176;28;20935;-64
2022/08/11 16:48:28;;;;;;;5.93;2.40;;;;;;;24.97;32.62;97293.56;4949174;28;20423;-65
2022/08/11 16:51:06;;;;;;;3.03;2.67;;;;;;;24.82;31.88;97283.56;4967000;28;20718;-64
2022/08/11 16:53:37;;;;;;;2.67;2.53;;;;;;;24.81;32.69;97285.50;4970383;28;20218;-64
2022/08/11 16:56:28;;;;;;;2.63;2.43;;;;;;;24.75;32.93;97283.06;4901054;28;21588;-66
2022/08/11 16:59:14;;;;;;;6.27;3.57;;;;;;;24.75;32.98;97285.75;4969346;28;20638;-65
2022/08/11 17:01:48;;;;;;;2.23;1.93;;;;;;;24.70;33.73;97278.41;4967952;28;20206;-64
2022/08/11 17:13:21;;;;;;;2.80;2.60;;;;;;;24.26;35.51;97294.16;4894192;28;20288;-63